sensor_id;sensor_type;location;lat;lon;timestamp;pressure;altitude;pressure_sealevel;temperature;humidity
75051;BME280;63628;47.656;11.310;2023-04-24T00:01:22;93977.91;;;14.03;69.60
75051;BME280;63628;47.656;11.310;2023-04-24T00:03:49;93979.47;;;14.09;69.10
75051;BME280;63628;47.656;11.310;2023-04-24T00:06:16;93988.09;;;11.50;74.33
75051;BME280;63628;47.656;11.310;2023-04-24T00:08:43;93979.34;;;11.97;76.92
75051;BME280;63628;47.656;11.310;2023-04-24T00:11:10;93972.75;;;13.52;70.99
75051;BME280;63628;47.656;11.310;2023-04-24T00:13:37;93968.03;;;12.42;69.78
75051;BME280;63628;47.656;11.310;2023-04-24T00:16:04;93965.03;;;13.66;70.58
75051;BME280;63628;47.656;11.310;2023-04-24T00:18:33;93960.69;;;13.85;70.00
75051;BME280;63628;47.656;11.310;2023-04-24T00:20:59;93954.56;;;13.89;69.35
75051;BME280;63628;47.656;11.310;2023-04-24T00:23:26;93958.75;;;13.11;72.08
75051;BME280;63628;47.656;11.310;2023-04-24T00:25:53;93951.53;;;13.42;70.99
75051;BME280;63628;47.656;11.310;2023-04-24T00:28:20;93950.63;;;13.77;69.92
75051;BME280;63628;47.656;11.310;2023-04-24T00:30:46;93945.28;;;13.82;69.45
75051;BME280;63628;47.656;11.310;2023-04-24T00:33:13;93945.78;;;13.89;69.34
75051;BME280;63628;47.656;11.310;2023-04-24T00:35:41;93940.19;;;13.90;68.98
75051;BME280;63628;47.656;11.310;2023-04-24T00:38:08;93932.19;;;13.90;68.84
75051;BME280;63628;47.656;11.310;2023-04-24T00:40:34;93928.75;;;13.90;68.96
75051;BME280;63628;47.656;11.310;2023-04-24T00:43:01;93929.81;;;13.89;69.11
75051;BME280;63628;47.656;11.310;2023-04-24T00:45:28;93924.41;;;13.45;69.90
75051;BME280;63628;47.656;11.310;2023-04-24T00:47:54;93921.88;;;13.79;69.56
75051;BME280;63628;47.656;11.310;2023-04-24T00:50:22;93916.03;;;13.82;69.13
75051;BME280;63628;47.656;11.310;2023-04-24T00:52:51;93916.47;;;13.35;66.21
75051;BME280;63628;47.656;11.310;2023-04-24T00:55:19;93911.81;;;13.71;69.15
75051;BME280;63628;47.656;11.310;2023-04-24T00:57:46;93924.03;;;13.77;69.03
75051;BME280;63628;47.656;11.310;2023-04-24T01:00:14;93917.63;;;13.83;69.19
75051;BME280;63628;47.656;11.310;2023-04-24T01:02:43;93918.66;;;13.87;68.73
75051;BME280;63628;47.656;11.310;2023-04-24T01:05:12;93927.94;;;12.89;72.09
75051;BME280;63628;47.656;11.310;2023-04-24T01:07:40;93936.44;;;13.07;66.41
75051;BME280;63628;47.656;11.310;2023-04-24T01:10:15;93933.91;;;13.61;69.53
75051;BME280;63628;47.656;11.310;2023-04-24T01:12:43;93939.47;;;13.75;69.20
75051;BME280;63628;47.656;11.310;2023-04-24T01:15:10;93939.00;;;13.47;69.82
75051;BME280;63628;47.656;11.310;2023-04-24T01:17:37;93941.44;;;13.39;65.57
75051;BME280;63628;47.656;11.310;2023-04-24T01:20:05;93946.16;;;13.67;69.34
75051;BME280;63628;47.656;11.310;2023-04-24T01:22:34;93935.75;;;13.71;66.53
75051;BME280;63628;47.656;11.310;2023-04-24T01:25:01;93948.13;;;12.40;72.89
75051;BME280;63628;47.656;11.310;2023-04-24T01:27:27;93946.72;;;13.49;70.30
75051;BME280;63628;47.656;11.310;2023-04-24T01:29:54;93956.38;;;12.68;67.81
75051;BME280;63628;47.656;11.310;2023-04-24T01:32:21;93949.19;;;13.05;71.15
75051;BME280;63628;47.656;11.310;2023-04-24T01:34:48;93954.50;;;12.94;65.87
75051;BME280;63628;47.656;11.310;2023-04-24T01:37:15;93960.16;;;10.85;74.13
75051;BME280;63628;47.656;11.310;2023-04-24T01:39:43;93961.66;;;12.89;72.47
75051;BME280;63628;47.656;11.310;2023-04-24T01:42:12;93963.50;;;13.34;70.19
75051;BME280;63628;47.656;11.310;2023-04-24T01:44:39;93959.19;;;11.96;75.23
75051;BME280;63628;47.656;11.310;2023-04-24T01:47:06;93953.16;;;13.22;70.45
75051;BME280;63628;47.656;11.310;2023-04-24T01:49:33;93950.72;;;13.41;69.46
75051;BME280;63628;47.656;11.310;2023-04-24T01:52:00;93943.28;;;12.11;73.26
75051;BME280;63628;47.656;11.310;2023-04-24T01:54:26;93940.66;;;13.28;70.05
75051;BME280;63628;47.656;11.310;2023-04-24T01:56:54;93952.59;;;12.29;71.27
75051;BME280;63628;47.656;11.310;2023-04-24T01:59:21;93947.03;;;13.32;70.17
75051;BME280;63628;47.656;11.310;2023-04-24T02:01:49;93943.03;;;13.40;69.60
75051;BME280;63628;47.656;11.310;2023-04-24T02:04:16;93943.81;;;13.45;69.43
75051;BME280;63628;47.656;11.310;2023-04-24T02:06:43;93939.28;;;13.46;69.67
75051;BME280;63628;47.656;11.310;2023-04-24T02:09:09;93943.81;;;13.45;69.33
75051;BME280;63628;47.656;11.310;2023-04-24T02:11:37;93934.00;;;13.36;69.42
75051;BME280;63628;47.656;11.310;2023-04-24T02:14:05;93936.38;;;13.37;66.60
75051;BME280;63628;47.656;11.310;2023-04-24T02:16:31;93931.59;;;13.39;69.20
75051;BME280;63628;47.656;11.310;2023-04-24T02:19:02;93927.84;;;13.45;69.06
75051;BME280;63628;47.656;11.310;2023-04-24T02:21:29;93930.31;;;12.91;65.96
75051;BME280;63628;47.656;11.310;2023-04-24T02:23:57;93928.47;;;12.25;73.27
75051;BME280;63628;47.656;11.310;2023-04-24T02:26:24;93919.97;;;13.20;70.11
75051;BME280;63628;47.656;11.310;2023-04-24T02:28:51;93925.22;;;13.35;69.67
75051;BME280;63628;47.656;11.310;2023-04-24T02:31:19;93923.63;;;13.34;69.55
75051;BME280;63628;47.656;11.310;2023-04-24T02:33:46;93924.94;;;13.42;69.09
75051;BME280;63628;47.656;11.310;2023-04-24T02:36:13;93919.91;;;13.40;67.45
75051;BME280;63628;47.656;11.310;2023-04-24T02:38:40;93924.97;;;13.31;69.00
75051;BME280;63628;47.656;11.310;2023-04-24T02:41:07;93924.16;;;13.36;69.09
75051;BME280;63628;47.656;11.310;2023-04-24T02:43:33;93919.91;;;13.40;68.94
75051;BME280;63628;47.656;11.310;2023-04-24T02:46:00;93915.97;;;12.92;70.17
75051;BME280;63628;47.656;11.310;2023-04-24T02:48:28;93927.41;;;13.23;69.75
75051;BME280;63628;47.656;11.310;2023-04-24T02:50:55;93926.09;;;12.34;68.16
75051;BME280;63628;47.656;11.310;2023-04-24T02:53:21;93926.88;;;12.29;72.92
75051;BME280;63628;47.656;11.310;2023-04-24T02:55:49;93928.47;;;12.96;70.06
75051;BME280;63628;47.656;11.310;2023-04-24T02:58:16;93935.63;;;13.21;69.68
75051;BME280;63628;47.656;11.310;2023-04-24T03:00:43;93935.66;;;12.60;70.75
75051;BME280;63628;47.656;11.310;2023-04-24T03:03:10;93939.09;;;13.17;69.29
75051;BME280;63628;47.656;11.310;2023-04-24T03:05:38;93943.59;;;13.21;69.16
75051;BME280;63628;47.656;11.310;2023-04-24T03:08:05;93951.84;;;13.20;66.70
75051;BME280;63628;47.656;11.310;2023-04-24T03:10:32;93948.91;;;13.16;69.30
75051;BME280;63628;47.656;11.310;2023-04-24T03:12:59;93944.91;;;12.98;67.73
75051;BME280;63628;47.656;11.310;2023-04-24T03:15:26;93948.41;;;13.19;69.22
75051;BME280;63628;47.656;11.310;2023-04-24T03:17:53;93951.31;;;12.97;65.51
75051;BME280;63628;47.656;11.310;2023-04-24T03:20:22;93943.63;;;12.65;70.50
75051;BME280;63628;47.656;11.310;2023-04-24T03:22:50;93943.28;;;12.06;72.88
75051;BME280;63628;47.656;11.310;2023-04-24T03:25:17;93938.28;;;12.96;69.98
75051;BME280;63628;47.656;11.310;2023-04-24T03:27:44;93940.16;;;13.06;69.82
75051;BME280;63628;47.656;11.310;2023-04-24T03:30:11;93938.56;;;13.10;69.64
75051;BME280;63628;47.656;11.310;2023-04-24T03:32:38;93936.44;;;13.07;69.82
75051;BME280;63628;47.656;11.310;2023-04-24T03:35:06;93939.09;;;13.07;69.77
75051;BME280;63628;47.656;11.310;2023-04-24T03:37:34;93940.16;;;13.06;69.86
75051;BME280;63628;47.656;11.310;2023-04-24T03:40:02;93938.56;;;13.10;69.38
75051;BME280;63628;47.656;11.310;2023-04-24T03:42:29;93932.19;;;13.11;69.31
75051;BME280;63628;47.656;11.310;2023-04-24T03:44:56;93931.91;;;13.12;69.16
75051;BME280;63628;47.656;11.310;2023-04-24T03:47:22;93927.94;;;13.10;69.52
75051;BME280;63628;47.656;11.310;2023-04-24T03:49:49;93928.75;;;13.05;69.38
75051;BME280;63628;47.656;11.310;2023-04-24T03:52:16;93929.00;;;12.78;66.92
75051;BME280;63628;47.656;11.310;2023-04-24T03:54:42;93932.47;;;13.04;69.05
75051;BME280;63628;47.656;11.310;2023-04-24T03:57:10;93925.53;;;13.13;68.67
75051;BME280;63628;47.656;11.310;2023-04-24T03:59:37;93930.06;;;13.08;68.93
75051;BME280;63628;47.656;11.310;2023-04-24T04:02:04;93921.81;;;13.09;68.93
75051;BME280;63628;47.656;11.310;2023-04-24T04:04:31;93918.63;;;13.12;68.76
75051;BME280;63628;47.656;11.310;2023-04-24T04:06:58;93915.72;;;12.88;69.36
75051;BME280;63628;47.656;11.310;2023-04-24T04:09:27;93925.56;;;10.97;72.13
75051;BME280;63628;47.656;11.310;2023-04-24T04:11:54;93929.09;;;11.07;77.12
75051;BME280;63628;47.656;11.310;2023-04-24T04:14:22;93927.88;;;10.46;75.76
75051;BME280;63628;47.656;11.310;2023-04-24T04:16:48;93927.66;;;12.35;72.11
75051;BME280;63628;47.656;11.310;2023-04-24T04:19:19;93925.84;;;12.76;70.04
75051;BME280;63628;47.656;11.310;2023-04-24T04:21:46;93922.38;;;12.86;69.53
75051;BME280;63628;47.656;11.310;2023-04-24T04:24:17;93930.06;;;11.49;72.33
75051;BME280;63628;47.656;11.310;2023-04-24T04:26:43;93937.53;;;12.45;70.76
75051;BME280;63628;47.656;11.310;2023-04-24T04:29:13;93937.78;;;12.63;70.35
75051;BME280;63628;47.656;11.310;2023-04-24T04:31:42;93939.13;;;12.35;67.08
75051;BME280;63628;47.656;11.310;2023-04-24T04:34:09;93931.66;;;12.27;70.54
75051;BME280;63628;47.656;11.310;2023-04-24T04:36:36;93931.31;;;11.31;73.72
75051;BME280;63628;47.656;11.310;2023-04-24T04:39:03;93933.78;;;11.00;74.61
75051;BME280;63628;47.656;11.310;2023-04-24T04:41:30;93938.06;;;12.52;70.42
75051;BME280;63628;47.656;11.310;2023-04-24T04:43:56;93935.66;;;12.70;69.74
75051;BME280;63628;47.656;11.310;2023-04-24T04:46:24;93931.66;;;12.78;69.79
75051;BME280;63628;47.656;11.310;2023-04-24T04:48:53;93939.38;;;12.80;69.29
75051;BME280;63628;47.656;11.310;2023-04-24T04:51:20;93938.84;;;12.83;68.19
75051;BME280;63628;47.656;11.310;2023-04-24T04:53:47;93947.59;;;12.78;69.25
75051;BME280;63628;47.656;11.310;2023-04-24T04:56:13;93948.13;;;12.80;69.18
75051;BME280;63628;47.656;11.310;2023-04-24T04:58:40;93957.69;;;12.76;69.56
75051;BME280;63628;47.656;11.310;2023-04-24T05:01:07;93948.13;;;12.75;69.42
75051;BME280;63628;47.656;11.310;2023-04-24T05:03:34;93958.50;;;12.77;69.37
75051;BME280;63628;47.656;11.310;2023-04-24T05:06:03;93963.81;;;12.72;69.69
75051;BME280;63628;47.656;11.310;2023-04-24T05:08:29;93958.50;;;12.66;69.59
75051;BME280;63628;47.656;11.310;2023-04-24T05:10:56;93969.91;;;12.67;69.98
75051;BME280;63628;47.656;11.310;2023-04-24T05:13:23;93975.16;;;12.21;67.16
75051;BME280;63628;47.656;11.310;2023-04-24T05:15:52;93958.75;;;12.50;69.69
75051;BME280;63628;47.656;11.310;2023-04-24T05:18:19;93978.13;;;12.70;67.94
75051;BME280;63628;47.656;11.310;2023-04-24T05:20:45;93976.09;;;11.32;73.68
75051;BME280;63628;47.656;11.310;2023-04-24T05:23:13;93977.59;;;12.43;70.51
75051;BME280;63628;47.656;11.310;2023-04-24T05:25:40;93976.53;;;12.59;69.81
75051;BME280;63628;47.656;11.310;2023-04-24T05:28:07;93978.56;;;11.49;71.78
75051;BME280;63628;47.656;11.310;2023-04-24T05:30:34;93975.56;;;11.83;73.03
75051;BME280;63628;47.656;11.310;2023-04-24T05:33:01;93983.44;;;12.45;70.20
75051;BME280;63628;47.656;11.310;2023-04-24T05:35:28;93980.25;;;12.58;69.44
75051;BME280;63628;47.656;11.310;2023-04-24T05:37:54;93981.31;;;12.62;69.18
75051;BME280;63628;47.656;11.310;2023-04-24T05:40:23;93983.13;;;12.26;67.33
75051;BME280;63628;47.656;11.310;2023-04-24T05:42:49;93980.19;;;12.18;71.36
75051;BME280;63628;47.656;11.310;2023-04-24T05:45:16;93980.78;;;12.40;69.66
75051;BME280;63628;47.656;11.310;2023-04-24T05:47:43;93979.19;;;12.54;69.28
75051;BME280;63628;47.656;11.310;2023-04-24T05:50:10;93978.41;;;12.59;69.15
75051;BME280;63628;47.656;11.310;2023-04-24T05:52:37;93966.19;;;12.53;67.42
75051;BME280;63628;47.656;11.310;2023-04-24T05:55:04;93973.28;;;12.17;69.73
75051;BME280;63628;47.656;11.310;2023-04-24T05:57:33;93976.22;;;11.58;72.94
75051;BME280;63628;47.656;11.310;2023-04-24T05:59:59;93970.94;;;12.35;70.23
75051;BME280;63628;47.656;11.310;2023-04-24T06:02:26;93970.44;;;12.49;69.35
75051;BME280;63628;47.656;11.310;2023-04-24T06:04:54;93972.56;;;12.52;69.32
75051;BME280;63628;47.656;11.310;2023-04-24T06:07:22;93986.34;;;12.49;69.94
75051;BME280;63628;47.656;11.310;2023-04-24T06:09:48;93980.50;;;12.47;70.27
75051;BME280;63628;47.656;11.310;2023-04-24T06:12:15;93996.66;;;12.35;70.33
75051;BME280;63628;47.656;11.310;2023-04-24T06:14:43;93998.28;;;12.46;69.90
75051;BME280;63628;47.656;11.310;2023-04-24T06:17:09;93996.44;;;12.47;70.02
75051;BME280;63628;47.656;11.310;2023-04-24T06:19:36;93993.53;;;12.48;69.86
75051;BME280;63628;47.656;11.310;2023-04-24T06:22:03;93997.75;;;12.44;70.07
75051;BME280;63628;47.656;11.310;2023-04-24T06:24:29;93990.59;;;12.45;69.84
75051;BME280;63628;47.656;11.310;2023-04-24T06:26:56;93980.50;;;12.42;69.45
75051;BME280;63628;47.656;11.310;2023-04-24T06:29:25;93986.09;;;12.45;69.56
75051;BME280;63628;47.656;11.310;2023-04-24T06:31:53;93996.19;;;12.48;69.57
75051;BME280;63628;47.656;11.310;2023-04-24T06:34:20;93995.38;;;12.48;69.49
75051;BME280;63628;47.656;11.310;2023-04-24T06:36:46;93995.09;;;12.44;67.93
75051;BME280;63628;47.656;11.310;2023-04-24T06:39:13;93993.97;;;12.20;69.88
75051;BME280;63628;47.656;11.310;2023-04-24T06:41:40;94006.25;;;12.41;69.60
75051;BME280;63628;47.656;11.310;2023-04-24T06:44:07;93999.28;;;10.78;75.40
75051;BME280;63628;47.656;11.310;2023-04-24T06:46:33;93994.50;;;12.12;70.75
75051;BME280;63628;47.656;11.310;2023-04-24T06:49:01;93994.00;;;12.35;69.96
75051;BME280;63628;47.656;11.310;2023-04-24T06:51:28;94000.78;;;11.90;71.08
75051;BME280;63628;47.656;11.310;2023-04-24T06:53:55;94001.69;;;12.31;70.09
75051;BME280;63628;47.656;11.310;2023-04-24T06:56:25;93996.97;;;12.38;69.91
75051;BME280;63628;47.656;11.310;2023-04-24T06:58:52;94006.25;;;12.36;70.10
75051;BME280;63628;47.656;11.310;2023-04-24T07:01:19;94003.59;;;12.36;70.13
75051;BME280;63628;47.656;11.310;2023-04-24T07:03:46;94011.81;;;12.40;69.43
75051;BME280;63628;47.656;11.310;2023-04-24T07:06:15;94009.16;;;12.40;69.50
75051;BME280;63628;47.656;11.310;2023-04-24T07:08:43;94008.63;;;12.37;69.90
75051;BME280;63628;47.656;11.310;2023-04-24T07:11:10;94004.91;;;12.38;69.76
75051;BME280;63628;47.656;11.310;2023-04-24T07:13:36;94002.22;;;12.33;70.23
75051;BME280;63628;47.656;11.310;2023-04-24T07:16:08;94007.94;;;11.85;73.76
75051;BME280;63628;47.656;11.310;2023-04-24T07:18:35;94010.44;;;12.27;70.01
75051;BME280;63628;47.656;11.310;2023-04-24T07:21:02;94008.31;;;12.24;70.41
75051;BME280;63628;47.656;11.310;2023-04-24T07:23:31;94002.22;;;12.33;69.87
75051;BME280;63628;47.656;11.310;2023-04-24T07:25:57;94006.47;;;12.34;69.75
75051;BME280;63628;47.656;11.310;2023-04-24T07:28:24;94014.44;;;12.34;69.95
75051;BME280;63628;47.656;11.310;2023-04-24T07:30:51;94008.00;;;12.10;72.93
75051;BME280;63628;47.656;11.310;2023-04-24T07:33:20;94013.59;;;11.14;73.88
75051;BME280;63628;47.656;11.310;2023-04-24T07:35:47;94009.81;;;11.47;72.64
75051;BME280;63628;47.656;11.310;2023-04-24T07:38:14;94014.22;;;11.73;72.57
75051;BME280;63628;47.656;11.310;2023-04-24T07:40:42;94016.13;;;11.36;73.84
75051;BME280;63628;47.656;11.310;2023-04-24T07:43:09;94018.44;;;11.27;75.77
75051;BME280;63628;47.656;11.310;2023-04-24T07:45:36;94027.03;;;11.87;71.90
75051;BME280;63628;47.656;11.310;2023-04-24T07:48:04;94021.97;;;11.80;75.18
75051;BME280;63628;47.656;11.310;2023-04-24T07:50:31;94030.03;;;10.84;74.04
75051;BME280;63628;47.656;11.310;2023-04-24T07:52:57;94027.69;;;10.88;72.92
75051;BME280;63628;47.656;11.310;2023-04-24T07:55:24;94037.13;;;10.78;72.27
75051;BME280;63628;47.656;11.310;2023-04-24T07:57:55;94034.81;;;11.66;72.21
75051;BME280;63628;47.656;11.310;2023-04-24T08:00:21;94047.50;;;10.85;73.97
75051;BME280;63628;47.656;11.310;2023-04-24T08:02:48;94037.28;;;10.99;73.14
75051;BME280;63628;47.656;11.310;2023-04-24T08:05:15;94055.16;;;11.51;66.48
75051;BME280;63628;47.656;11.310;2023-04-24T08:07:42;94063.66;;;11.95;71.67
75051;BME280;63628;47.656;11.310;2023-04-24T08:10:09;94083.47;;;11.45;70.39
75051;BME280;63628;47.656;11.310;2023-04-24T08:12:37;94072.59;;;11.79;70.87
75051;BME280;63628;47.656;11.310;2023-04-24T08:15:06;94083.97;;;11.42;66.29
75051;BME280;63628;47.656;11.310;2023-04-24T08:17:33;94089.34;;;11.52;70.80
75051;BME280;63628;47.656;11.310;2023-04-24T08:20:00;94092.34;;;11.66;71.27
75051;BME280;63628;47.656;11.310;2023-04-24T08:22:28;94093.84;;;11.52;71.54
75051;BME280;63628;47.656;11.310;2023-04-24T08:24:55;94092.13;;;11.72;69.08
75051;BME280;63628;47.656;11.310;2023-04-24T08:27:23;94095.41;;;11.85;71.43
75051;BME280;63628;47.656;11.310;2023-04-24T08:29:50;94104.78;;;12.02;71.38
75051;BME280;63628;47.656;11.310;2023-04-24T08:32:18;94096.59;;;11.67;71.08
75051;BME280;63628;47.656;11.310;2023-04-24T08:34:44;94095.72;;;11.19;66.30
75051;BME280;63628;47.656;11.310;2023-04-24T08:37:14;94100.94;;;11.78;71.15
75051;BME280;63628;47.656;11.310;2023-04-24T08:39:41;94100.72;;;11.85;71.15
75051;BME280;63628;47.656;11.310;2023-04-24T08:42:08;94105.78;;;11.54;68.21
75051;BME280;63628;47.656;11.310;2023-04-24T08:44:35;94104.97;;;11.54;70.23
75051;BME280;63628;47.656;11.310;2023-04-24T08:47:02;94104.69;;;11.82;70.83
75051;BME280;63628;47.656;11.310;2023-04-24T08:49:31;94106.63;;;11.97;71.03
75051;BME280;63628;47.656;11.310;2023-04-24T08:51:58;94102.31;;;11.86;68.96
75051;BME280;63628;47.656;11.310;2023-04-24T08:54:26;94116.63;;;11.53;63.89
75051;BME280;63628;47.656;11.310;2023-04-24T08:56:54;94108.69;;;11.85;71.01
75051;BME280;63628;47.656;11.310;2023-04-24T08:59:22;94106.34;;;11.93;70.71
75051;BME280;63628;47.656;11.310;2023-04-24T09:01:51;94115.63;;;11.96;71.03
75051;BME280;63628;47.656;11.310;2023-04-24T09:04:20;94121.09;;;11.79;66.50
75051;BME280;63628;47.656;11.310;2023-04-24T09:06:50;94119.63;;;11.98;70.99
75051;BME280;63628;47.656;11.310;2023-04-24T09:09:17;94121.97;;;11.95;69.63
75051;BME280;63628;47.656;11.310;2023-04-24T09:11:44;94119.03;;;11.91;69.06
75051;BME280;63628;47.656;11.310;2023-04-24T09:14:11;94118.00;;;11.92;68.49
75051;BME280;63628;47.656;11.310;2023-04-24T09:16:38;94123.53;;;11.86;68.39
75051;BME280;63628;47.656;11.310;2023-04-24T09:19:05;94115.53;;;11.81;68.90
75051;BME280;63628;47.656;11.310;2023-04-24T09:21:32;94108.44;;;11.54;63.11
75051;BME280;63628;47.656;11.310;2023-04-24T09:24:01;94119.78;;;11.82;68.62
75051;BME280;63628;47.656;11.310;2023-04-24T09:26:30;94114.50;;;11.82;67.38
75051;BME280;63628;47.656;11.310;2023-04-24T09:28:59;94109.50;;;11.90;68.04
75051;BME280;63628;47.656;11.310;2023-04-24T09:31:27;94119.53;;;11.83;67.23
75051;BME280;63628;47.656;11.310;2023-04-24T09:33:56;94119.63;;;12.03;64.09
75051;BME280;63628;47.656;11.310;2023-04-24T09:36:27;94114.84;;;12.00;66.50
75051;BME280;63628;47.656;11.310;2023-04-24T09:38:58;94107.66;;;11.96;64.11
75051;BME280;63628;47.656;11.310;2023-04-24T09:41:26;94112.19;;;11.95;69.10
75051;BME280;63628;47.656;11.310;2023-04-24T09:43:56;94099.94;;;11.89;66.17
75051;BME280;63628;47.656;11.310;2023-04-24T09:46:31;94106.06;;;11.95;69.12
75051;BME280;63628;47.656;11.310;2023-04-24T09:49:07;94107.41;;;11.97;67.28
75051;BME280;63628;47.656;11.310;2023-04-24T09:51:36;94106.72;;;12.17;64.63
75051;BME280;63628;47.656;11.310;2023-04-24T09:54:04;94095.22;;;12.01;68.19
75051;BME280;63628;47.656;11.310;2023-04-24T09:56:33;94091.63;;;12.28;65.93
75051;BME280;63628;47.656;11.310;2023-04-24T09:59:06;94096.06;;;12.07;68.71
75051;BME280;63628;47.656;11.310;2023-04-24T10:01:34;94102.16;;;12.07;68.80
75051;BME280;63628;47.656;11.310;2023-04-24T10:04:00;94088.88;;;12.02;62.82
75051;BME280;63628;47.656;11.310;2023-04-24T10:06:33;94081.97;;;12.89;62.21
75051;BME280;63628;47.656;11.310;2023-04-24T10:09:00;94097.28;;;12.42;65.79
75051;BME280;63628;47.656;11.310;2023-04-24T10:11:27;94090.66;;;12.49;60.89
75051;BME280;63628;47.656;11.310;2023-04-24T10:13:56;94094.56;;;12.31;66.91
75051;BME280;63628;47.656;11.310;2023-04-24T10:16:24;94091.25;;;12.77;62.87
75051;BME280;63628;47.656;11.310;2023-04-24T10:18:51;94101.00;;;12.46;66.13
75051;BME280;63628;47.656;11.310;2023-04-24T10:21:17;94100.88;;;12.20;68.87
75051;BME280;63628;47.656;11.310;2023-04-24T10:23:44;94084.44;;;12.18;62.21
75051;BME280;63628;47.656;11.310;2023-04-24T10:26:13;94095.84;;;12.24;66.18
75051;BME280;63628;47.656;11.310;2023-04-24T10:28:45;94092.91;;;13.03;64.56
75051;BME280;63628;47.656;11.310;2023-04-24T10:31:14;94090.53;;;13.32;64.45
75051;BME280;63628;47.656;11.310;2023-04-24T10:33:42;94083.00;;;14.00;58.47
75051;BME280;63628;47.656;11.310;2023-04-24T10:36:10;94086.44;;;12.63;61.28
75051;BME280;63628;47.656;11.310;2023-04-24T10:38:38;94086.34;;;12.33;68.44
75051;BME280;63628;47.656;11.310;2023-04-24T10:41:08;94090.44;;;12.71;65.19
75051;BME280;63628;47.656;11.310;2023-04-24T10:43:42;94086.16;;;12.50;64.52
75051;BME280;63628;47.656;11.310;2023-04-24T10:46:10;94077.47;;;13.00;58.13
75051;BME280;63628;47.656;11.310;2023-04-24T10:48:43;94077.44;;;12.75;61.13
75051;BME280;63628;47.656;11.310;2023-04-24T10:51:14;94081.69;;;12.91;60.54
75051;BME280;63628;47.656;11.310;2023-04-24T10:53:41;94096.56;;;12.87;64.33
75051;BME280;63628;47.656;11.310;2023-04-24T10:56:09;94085.91;;;12.61;62.41
75051;BME280;63628;47.656;11.310;2023-04-24T10:58:40;94081.41;;;12.62;63.31
75051;BME280;63628;47.656;11.310;2023-04-24T11:01:23;94102.06;;;12.45;68.00
75051;BME280;63628;47.656;11.310;2023-04-24T11:03:56;94115.66;;;12.68;60.16
75051;BME280;63628;47.656;11.310;2023-04-24T11:06:30;94142.38;;;12.36;62.97
75051;BME280;63628;47.656;11.310;2023-04-24T11:09:03;94169.44;;;11.64;63.96
75051;BME280;63628;47.656;11.310;2023-04-24T11:11:34;94168.50;;;11.43;63.96
75051;BME280;63628;47.656;11.310;2023-04-24T11:14:06;94183.88;;;11.73;65.63
75051;BME280;63628;47.656;11.310;2023-04-24T11:16:35;94189.78;;;12.28;69.50
75051;BME280;63628;47.656;11.310;2023-04-24T11:19:05;94185.81;;;12.30;69.38
75051;BME280;63628;47.656;11.310;2023-04-24T11:21:42;94193.44;;;12.17;69.21
75051;BME280;63628;47.656;11.310;2023-04-24T11:24:26;94186.47;;;12.05;69.00
75051;BME280;63628;47.656;11.310;2023-04-24T11:26:54;94206.50;;;12.28;70.01
75051;BME280;63628;47.656;11.310;2023-04-24T11:29:22;94196.97;;;11.85;67.65
75051;BME280;63628;47.656;11.310;2023-04-24T11:31:50;94194.03;;;12.29;69.35
75051;BME280;63628;47.656;11.310;2023-04-24T11:34:19;94215.25;;;12.29;69.15
75051;BME280;63628;47.656;11.310;2023-04-24T11:36:46;94225.09;;;12.33;69.57
75051;BME280;63628;47.656;11.310;2023-04-24T11:39:14;94233.03;;;11.86;67.57
75051;BME280;63628;47.656;11.310;2023-04-24T11:41:41;94217.34;;;12.22;69.40
75051;BME280;63628;47.656;11.310;2023-04-24T11:44:09;94206.75;;;11.26;58.58
75051;BME280;63628;47.656;11.310;2023-04-24T11:46:37;94200.47;;;10.83;62.69
75051;BME280;63628;47.656;11.310;2023-04-24T11:49:07;94205.97;;;11.57;62.33
75051;BME280;63628;47.656;11.310;2023-04-24T11:51:35;94196.56;;;11.71;67.50
75051;BME280;63628;47.656;11.310;2023-04-24T11:54:18;94189.91;;;11.69;67.27
75051;BME280;63628;47.656;11.310;2023-04-24T11:56:46;94189.94;;;11.42;66.50
75051;BME280;63628;47.656;11.310;2023-04-24T11:59:13;94196.22;;;11.31;64.05
75051;BME280;63628;47.656;11.310;2023-04-24T12:01:43;94201.91;;;11.77;62.42
75051;BME280;63628;47.656;11.310;2023-04-24T12:04:11;94199.06;;;10.75;61.74
75051;BME280;63628;47.656;11.310;2023-04-24T12:06:39;94192.16;;;11.23;63.60
75051;BME280;63628;47.656;11.310;2023-04-24T12:09:06;94196.16;;;10.99;60.32
75051;BME280;63628;47.656;11.310;2023-04-24T12:11:52;94190.03;;;11.52;60.63
75051;BME280;63628;47.656;11.310;2023-04-24T12:14:19;94186.81;;;10.91;59.72
75051;BME280;63628;47.656;11.310;2023-04-24T12:16:47;94186.84;;;10.96;59.23
75051;BME280;63628;47.656;11.310;2023-04-24T12:19:18;94182.47;;;10.80;59.31
75051;BME280;63628;47.656;11.310;2023-04-24T12:21:59;94184.22;;;11.55;61.80
75051;BME280;63628;47.656;11.310;2023-04-24T12:24:26;94180.88;;;11.70;60.21
75051;BME280;63628;47.656;11.310;2023-04-24T12:26:52;94186.38;;;11.90;61.46
75051;BME280;63628;47.656;11.310;2023-04-24T12:29:20;94177.44;;;12.01;59.96
75051;BME280;63628;47.656;11.310;2023-04-24T12:31:47;94167.63;;;11.70;58.77
75051;BME280;63628;47.656;11.310;2023-04-24T12:34:18;94175.06;;;12.00;58.79
75051;BME280;63628;47.656;11.310;2023-04-24T12:36:46;94162.66;;;12.16;60.13
75051;BME280;63628;47.656;11.310;2023-04-24T12:39:16;94159.91;;;12.43;57.78
75051;BME280;63628;47.656;11.310;2023-04-24T12:41:56;94155.47;;;12.06;55.14
75051;BME280;63628;47.656;11.310;2023-04-24T12:44:31;94162.69;;;12.21;58.27
75051;BME280;63628;47.656;11.310;2023-04-24T12:46:58;94181.56;;;12.29;56.26
75051;BME280;63628;47.656;11.310;2023-04-24T12:49:24;94171.19;;;12.23;57.47
75051;BME280;63628;47.656;11.310;2023-04-24T12:51:53;94176.59;;;12.38;54.97
75051;BME280;63628;47.656;11.310;2023-04-24T12:54:19;94173.09;;;12.32;56.71